createdAt,value
2018-09-14T00:01:08.082Z,23.40
2018-09-14T00:03:36.411Z,23.40
2018-09-14T00:06:04.633Z,23.40
2018-09-14T00:08:33.334Z,23.40
2018-09-14T00:11:01.637Z,23.40
2018-09-14T00:13:29.853Z,23.40
2018-09-14T00:15:58.133Z,23.40
2018-09-14T00:18:27.377Z,23.40
2018-09-14T00:20:55.608Z,23.40
2018-09-14T00:23:24.230Z,23.40
2018-09-14T00:25:52.587Z,23.40
2018-09-14T00:28:20.835Z,23.40
2018-09-14T00:30:49.570Z,23.40
2018-09-14T00:33:17.874Z,23.40
2018-09-14T00:35:46.247Z,23.40
2018-09-14T00:38:14.918Z,23.40
2018-09-14T00:40:43.221Z,23.40
2018-09-14T00:43:11.452Z,23.40
2018-09-14T00:45:40.515Z,23.40
2018-09-14T00:48:08.722Z,23.40
2018-09-14T00:50:37.107Z,23.40
2018-09-14T00:53:05.807Z,23.40
2018-09-14T00:55:34.100Z,23.40
2018-09-14T00:58:02.479Z,23.40
2018-09-14T01:00:31.038Z,23.40
2018-09-14T01:02:59.272Z,23.40
2018-09-14T01:05:27.566Z,23.40
2018-09-14T01:07:57.202Z,23.40
2018-09-14T01:10:25.439Z,23.40
2018-09-14T01:12:53.671Z,23.40
2018-09-14T01:15:22.034Z,23.40
2018-09-14T01:17:50.245Z,23.40
2018-09-14T01:20:19.380Z,23.40
2018-09-14T01:22:47.777Z,23.30
2018-09-14T01:25:15.999Z,23.40
2018-09-14T01:27:44.221Z,23.40
2018-09-14T01:30:13.126Z,23.30
2018-09-14T01:32:41.422Z,23.40
2018-09-14T01:35:15.331Z,23.30
2018-09-14T01:37:43.578Z,23.30
2018-09-14T01:40:11.822Z,23.30
2018-09-14T01:42:40.577Z,23.30
2018-09-14T01:45:08.807Z,23.30
2018-09-14T01:47:37.061Z,23.30
2018-09-14T01:50:06.182Z,23.30
2018-09-14T01:52:34.628Z,23.30
2018-09-14T01:55:02.847Z,23.30
2018-09-14T01:57:31.442Z,23.30
2018-09-14T01:59:59.702Z,23.30
2018-09-14T02:02:29.093Z,23.30
2018-09-14T02:04:59.441Z,23.30
2018-09-14T02:07:27.662Z,23.30
2018-09-14T02:09:57.582Z,23.30
2018-09-14T02:12:25.807Z,23.30
2018-09-14T02:14:54.031Z,23.30
2018-09-14T02:17:22.470Z,23.30
2018-09-14T02:19:50.861Z,23.30
2018-09-14T02:22:19.235Z,23.30
2018-09-14T02:24:47.814Z,23.30
2018-09-14T02:27:16.043Z,23.30
2018-09-14T02:29:44.497Z,23.30
2018-09-14T02:32:12.783Z,23.30
2018-09-14T02:34:41.075Z,23.30
2018-09-14T02:37:09.301Z,23.30
2018-09-14T02:39:37.578Z,23.30
2018-09-14T02:42:06.090Z,23.20
2018-09-14T02:44:34.325Z,23.30
2018-09-14T02:47:03.431Z,23.30
2018-09-14T02:49:31.659Z,23.20
2018-09-14T02:51:59.971Z,23.20
2018-09-14T02:54:28.269Z,23.30
2018-09-14T02:56:56.499Z,23.20
2018-09-14T02:59:24.710Z,23.20
2018-09-14T03:01:53.602Z,23.20
2018-09-14T03:04:21.986Z,23.20
2018-09-14T03:06:50.305Z,23.20
2018-09-14T03:09:18.837Z,23.20
2018-09-14T03:11:47.167Z,23.30
2018-09-14T03:14:15.478Z,23.30
2018-09-14T03:16:44.192Z,23.20
2018-09-14T03:19:12.417Z,23.20
2018-09-14T03:21:41.147Z,23.30
2018-09-14T03:24:09.830Z,23.30
2018-09-14T03:26:38.066Z,23.20
2018-09-14T03:29:06.376Z,23.20
2018-09-14T03:31:35.183Z,23.30
2018-09-14T03:34:03.527Z,23.20
2018-09-14T03:36:31.738Z,23.20
2018-09-14T03:39:00.825Z,23.20
2018-09-14T03:41:29.064Z,23.20
2018-09-14T03:43:57.309Z,23.20
2018-09-14T03:46:26.069Z,23.20
2018-09-14T03:48:54.286Z,23.20
2018-09-14T03:51:22.490Z,23.20
2018-09-14T03:53:51.710Z,23.20
2018-09-14T03:56:19.949Z,23.20
2018-09-14T03:58:48.158Z,23.20
2018-09-14T04:01:16.530Z,23.20
2018-09-14T04:03:44.766Z,23.20
2018-09-14T04:06:13.075Z,23.20
2018-09-14T04:08:41.447Z,23.20
2018-09-14T04:11:09.895Z,23.20
2018-09-14T04:13:38.110Z,23.20
2018-09-14T04:16:07.238Z,23.20
2018-09-14T04:18:35.467Z,23.20
2018-09-14T04:21:03.831Z,23.20
2018-09-14T04:23:32.821Z,23.20
2018-09-14T04:26:01.029Z,23.20
2018-09-14T04:28:29.326Z,23.20
2018-09-14T04:30:57.693Z,23.20
2018-09-14T04:33:25.914Z,23.20
2018-09-14T04:35:54.221Z,23.20
2018-09-14T04:38:22.680Z,23.20
2018-09-14T04:40:50.907Z,23.20
2018-09-14T04:43:19.138Z,23.20
2018-09-14T04:45:47.581Z,23.20
2018-09-14T04:48:15.824Z,23.20
2018-09-14T04:50:44.081Z,23.10
2018-09-14T04:53:12.922Z,23.10
2018-09-14T04:55:41.145Z,23.20
2018-09-14T04:58:09.450Z,23.10
2018-09-14T05:00:38.873Z,23.10
2018-09-14T05:03:07.131Z,23.10
2018-09-14T05:05:36.555Z,23.10
2018-09-14T05:08:05.237Z,23.20
2018-09-14T05:10:33.461Z,23.20
2018-09-14T05:13:01.688Z,23.10
2018-09-14T05:15:30.348Z,23.10
2018-09-14T05:18:00.170Z,23.10
2018-09-14T05:20:28.498Z,23.10
2018-09-14T05:22:57.562Z,23.10
2018-09-14T05:25:26.370Z,23.10
2018-09-14T05:27:55.150Z,23.10
2018-09-14T05:30:23.389Z,23.10
2018-09-14T05:32:51.617Z,23.10
2018-09-14T05:35:19.961Z,23.10
2018-09-14T05:37:48.186Z,23.10
2018-09-14T05:40:16.417Z,23.10
2018-09-14T05:42:45.729Z,23.10
2018-09-14T05:45:14.242Z,23.10
2018-09-14T05:47:42.481Z,23.10
2018-09-14T05:50:10.978Z,23.10
2018-09-14T05:52:39.189Z,23.10
2018-09-14T05:55:07.409Z,23.10
2018-09-14T05:57:36.306Z,23.10
2018-09-14T06:00:04.574Z,23.00
2018-09-14T06:02:32.777Z,23.00
2018-09-14T06:05:01.346Z,23.10
2018-09-14T06:07:29.642Z,23.10
2018-09-14T06:09:57.966Z,23.10
2018-09-14T06:12:26.383Z,23.10
2018-09-14T06:14:54.610Z,23.00
2018-09-14T06:17:22.902Z,23.00
2018-09-14T06:19:52.087Z,23.10
2018-09-14T06:22:20.380Z,23.00
2018-09-14T06:24:48.698Z,23.00
2018-09-14T06:27:17.886Z,23.10
2018-09-14T06:29:46.098Z,23.10
2018-09-14T06:32:14.331Z,23.10
2018-09-14T06:34:42.725Z,23.00
2018-09-14T06:37:11.168Z,23.00
2018-09-14T06:39:39.427Z,23.10
2018-09-14T06:42:08.078Z,23.00
2018-09-14T06:44:36.407Z,23.10
2018-09-14T06:47:04.649Z,23.00
2018-09-14T06:49:33.318Z,23.00
2018-09-14T06:52:01.575Z,23.00
2018-09-14T06:54:29.833Z,23.00
2018-09-14T06:56:58.197Z,23.00
2018-09-14T06:59:26.496Z,23.00
2018-09-14T07:01:54.800Z,23.00
2018-09-14T07:04:23.467Z,23.00
2018-09-14T07:06:51.687Z,23.00
2018-09-14T07:09:19.929Z,23.00
2018-09-14T07:11:48.716Z,23.00
2018-09-14T07:14:16.971Z,23.00
2018-09-14T07:16:45.203Z,23.00
2018-09-14T07:19:14.727Z,23.00
2018-09-14T07:21:42.955Z,23.00
2018-09-14T07:24:11.428Z,23.00
2018-09-14T07:26:40.005Z,23.00
2018-09-14T07:29:08.931Z,23.10
2018-09-14T07:31:37.286Z,23.00
2018-09-14T07:34:05.761Z,23.00
2018-09-14T07:36:34.119Z,23.00
2018-09-14T07:39:02.351Z,23.00
2018-09-14T07:41:30.906Z,23.00
2018-09-14T07:43:59.235Z,23.00
2018-09-14T07:46:27.543Z,23.00
2018-09-14T07:48:55.944Z,23.00
2018-09-14T07:51:24.166Z,23.00
2018-09-14T07:53:52.394Z,23.00
2018-09-14T07:56:21.558Z,23.00
2018-09-14T07:58:49.850Z,23.00
2018-09-14T08:01:18.211Z,23.00
2018-09-14T08:03:46.638Z,23.00
2018-09-14T08:06:14.925Z,23.00
2018-09-14T08:08:43.167Z,23.00
2018-09-14T08:11:11.754Z,23.00
2018-09-14T08:13:39.984Z,23.00
2018-09-14T08:16:08.236Z,23.00
2018-09-14T08:18:38.538Z,23.00
2018-09-14T08:21:06.829Z,23.00
2018-09-14T08:23:35.062Z,23.00
2018-09-14T08:26:03.553Z,23.00
2018-09-14T08:28:31.783Z,23.00
2018-09-14T08:31:00.435Z,23.00
2018-09-14T08:33:28.726Z,23.00
2018-09-14T08:35:57.015Z,23.00
2018-09-14T08:38:25.243Z,23.00
2018-09-14T08:40:54.658Z,23.00
2018-09-14T08:43:22.877Z,23.00
2018-09-14T08:45:51.786Z,23.00
2018-09-14T08:48:20.039Z,23.00
2018-09-14T08:50:48.281Z,23.00
2018-09-14T08:53:16.558Z,23.00
2018-09-14T08:55:44.802Z,23.00
2018-09-14T08:58:13.052Z,23.00
2018-09-14T09:00:43.475Z,22.90
2018-09-14T09:03:11.602Z,23.00
2018-09-14T09:05:39.834Z,22.90
2018-09-14T09:08:08.173Z,22.90
2018-09-14T09:10:36.414Z,23.00
2018-09-14T09:13:04.635Z,22.90
2018-09-14T09:15:32.997Z,22.90
2018-09-14T09:18:01.343Z,22.90
2018-09-14T09:20:29.658Z,22.90
2018-09-14T09:22:59.072Z,22.90
2018-09-14T09:25:27.310Z,23.00
2018-09-14T09:27:55.691Z,22.90
2018-09-14T09:30:24.603Z,22.90
2018-09-14T09:32:53.834Z,22.90
2018-09-14T09:35:22.171Z,23.00
2018-09-14T09:37:50.427Z,23.00
2018-09-14T09:40:18.659Z,22.90
2018-09-14T09:42:47.642Z,23.00
2018-09-14T09:45:15.863Z,23.00
2018-09-14T09:47:44.183Z,23.00
2018-09-14T09:50:12.763Z,23.00
2018-09-14T09:52:40.989Z,23.00
2018-09-14T09:55:09.219Z,23.00
2018-09-14T09:57:37.706Z,23.00
2018-09-14T10:00:09.608Z,23.00
2018-09-14T10:02:39.738Z,23.00
2018-09-14T10:05:13.281Z,23.00
2018-09-14T10:07:42.062Z,23.00
2018-09-14T10:10:12.050Z,23.00
2018-09-14T10:12:40.588Z,23.00
2018-09-14T10:15:08.931Z,23.00
2018-09-14T10:17:37.098Z,23.00
2018-09-14T10:20:05.806Z,23.00
2018-09-14T10:22:34.123Z,23.00
2018-09-14T10:25:02.343Z,23.00
2018-09-14T10:27:31.186Z,23.00
2018-09-14T10:29:59.418Z,23.00
2018-09-14T10:32:27.654Z,23.00
2018-09-14T10:34:56.438Z,23.00
2018-09-14T10:37:24.700Z,23.00
2018-09-14T10:39:52.946Z,23.10
2018-09-14T10:42:22.051Z,23.10
2018-09-14T10:44:50.284Z,23.10
2018-09-14T10:47:18.730Z,23.10
2018-09-14T10:49:47.306Z,23.10
2018-09-14T10:52:15.567Z,23.10
2018-09-14T10:54:43.862Z,23.10
2018-09-14T10:57:12.522Z,23.10
2018-09-14T10:59:40.987Z,23.10
2018-09-14T11:02:09.306Z,23.10
2018-09-14T11:04:42.157Z,23.10
2018-09-14T11:07:10.457Z,23.10
2018-09-14T11:09:38.635Z,23.10
2018-09-14T11:12:07.821Z,23.20
2018-09-14T11:14:36.260Z,23.20
2018-09-14T11:17:04.490Z,23.20
2018-09-14T11:19:32.769Z,23.20
2018-09-14T11:22:01.002Z,23.20
2018-09-14T11:24:29.327Z,23.20
2018-09-14T11:26:57.757Z,23.20
2018-09-14T11:29:26.005Z,23.20
2018-09-14T11:31:54.302Z,23.20
2018-09-14T11:34:22.627Z,23.20
2018-09-14T11:36:51.823Z,23.20
2018-09-14T11:39:20.046Z,23.20
2018-09-14T11:41:48.304Z,23.20
2018-09-14T11:44:16.642Z,23.20
2018-09-14T11:46:45.283Z,23.30
2018-09-14T11:49:13.610Z,23.20
2018-09-14T11:51:41.918Z,23.30
2018-09-14T11:54:10.391Z,23.30
2018-09-14T11:56:38.584Z,23.30
2018-09-14T11:59:06.827Z,23.40
2018-09-14T12:01:35.504Z,23.40
2018-09-14T12:04:03.738Z,23.40
2018-09-14T12:06:33.102Z,23.40
2018-09-14T12:09:01.871Z,23.40
2018-09-14T12:11:30.113Z,23.40
2018-09-14T12:13:58.529Z,23.40
2018-09-14T12:16:27.072Z,23.40
2018-09-14T12:18:55.285Z,23.40
2018-09-14T12:21:23.526Z,23.40
2018-09-14T12:23:52.369Z,23.40
2018-09-14T12:26:20.583Z,23.40
2018-09-14T12:28:48.802Z,23.30
2018-09-14T12:31:17.705Z,23.30
2018-09-14T12:33:45.946Z,23.30
2018-09-14T12:36:14.182Z,23.30
2018-09-14T12:38:42.831Z,23.30
2018-09-14T12:41:11.068Z,23.30
2018-09-14T12:43:39.302Z,23.30
2018-09-14T12:46:08.382Z,23.30
2018-09-14T12:48:36.757Z,23.40
2018-09-14T12:51:04.978Z,23.40
2018-09-14T12:53:33.721Z,23.40
2018-09-14T12:56:02.029Z,23.40
2018-09-14T12:58:30.321Z,23.40
2018-09-14T13:00:58.880Z,23.40
2018-09-14T13:03:27.122Z,23.40
2018-09-14T13:05:55.370Z,23.40
2018-09-14T13:08:24.823Z,23.40
2018-09-14T13:10:53.059Z,23.40
2018-09-14T13:13:21.285Z,23.40
2018-09-14T13:15:49.958Z,23.40
2018-09-14T13:18:18.186Z,23.40
2018-09-14T13:20:46.400Z,23.40
2018-09-14T13:23:15.293Z,23.40
2018-09-14T13:25:43.534Z,23.40
2018-09-14T13:28:11.843Z,23.40
2018-09-14T13:30:40.767Z,23.40
2018-09-14T13:33:09.072Z,23.40
2018-09-14T13:35:37.309Z,23.40
2018-09-14T13:38:05.758Z,23.40
2018-09-14T13:40:34.057Z,23.40
2018-09-14T13:43:02.925Z,23.40
2018-09-14T13:45:31.319Z,23.40
2018-09-14T13:47:59.699Z,23.40
2018-09-14T13:50:28.082Z,23.40
2018-09-14T13:52:57.379Z,23.50
2018-09-14T13:55:25.535Z,23.50
2018-09-14T13:57:53.867Z,23.50
2018-09-14T14:00:22.167Z,23.50
2018-09-14T14:02:50.429Z,23.50
2018-09-14T14:05:20.302Z,23.50
2018-09-14T14:07:48.587Z,23.50
2018-09-14T14:10:16.971Z,23.60
2018-09-14T14:12:45.131Z,23.60
2018-09-14T14:15:13.454Z,23.60
2018-09-14T14:17:41.811Z,23.60
2018-09-14T14:20:10.037Z,23.60
2018-09-14T14:22:39.685Z,23.60
2018-09-14T14:25:07.917Z,23.60
2018-09-14T14:27:36.146Z,23.60
2018-09-14T14:30:04.433Z,23.60
2018-09-14T14:32:32.691Z,23.60
2018-09-14T14:35:00.947Z,23.60
2018-09-14T14:37:29.776Z,23.60
2018-09-14T14:39:58.026Z,23.60
2018-09-14T14:42:26.243Z,23.50
2018-09-14T14:44:55.147Z,23.50
2018-09-14T14:47:23.489Z,23.50
2018-09-14T14:49:51.824Z,23.50
2018-09-14T14:52:20.062Z,23.50
2018-09-14T14:54:48.327Z,23.50
2018-09-14T14:57:16.555Z,23.50
2018-09-14T14:59:45.297Z,23.50
2018-09-14T15:02:13.548Z,23.50
2018-09-14T15:04:41.816Z,23.50
2018-09-14T15:07:10.909Z,23.50
2018-09-14T15:09:39.239Z,23.50
2018-09-14T15:12:07.879Z,23.50
2018-09-14T15:14:36.176Z,23.50
2018-09-14T15:17:04.407Z,23.40
2018-09-14T15:19:32.719Z,23.40
2018-09-14T15:22:01.291Z,23.40
2018-09-14T15:24:29.626Z,23.40
2018-09-14T15:26:57.869Z,23.40
2018-09-14T15:29:26.484Z,23.40
2018-09-14T15:31:54.818Z,23.50
2018-09-14T15:34:23.082Z,23.40
2018-09-14T15:36:51.662Z,23.40
2018-09-14T15:39:19.894Z,23.50
2018-09-14T15:41:48.197Z,23.50
2018-09-14T15:44:17.736Z,23.50
2018-09-14T15:46:45.970Z,23.50
2018-09-14T15:49:14.266Z,23.50
2018-09-14T15:51:42.487Z,23.50
2018-09-14T15:54:10.907Z,23.50
2018-09-14T15:56:39.137Z,23.50
2018-09-14T15:59:09.154Z,23.50
2018-09-14T16:01:37.552Z,23.50
2018-09-14T16:04:05.802Z,23.50
2018-09-14T16:06:34.783Z,23.50
2018-09-14T16:09:03.055Z,23.50
2018-09-14T16:11:31.287Z,23.50
2018-09-14T16:14:01.568Z,23.40
2018-09-14T16:16:29.932Z,23.50
2018-09-14T16:18:58.338Z,23.50
2018-09-14T16:21:27.623Z,23.50
2018-09-14T16:23:55.874Z,23.50
2018-09-14T16:26:24.122Z,23.50
2018-09-14T16:28:52.854Z,23.50
2018-09-14T16:31:21.119Z,23.50
2018-09-14T16:33:49.363Z,23.50
2018-09-14T16:36:17.742Z,23.50
2018-09-14T16:38:46.010Z,23.50
2018-09-14T16:41:14.262Z,23.50
2018-09-14T16:43:43.146Z,23.50
2018-09-14T16:46:11.398Z,23.50
2018-09-14T16:48:39.643Z,23.50
2018-09-14T16:51:07.936Z,23.50
2018-09-14T16:53:36.207Z,23.50
2018-09-14T16:56:04.434Z,23.50
2018-09-14T16:58:33.408Z,23.50
2018-09-14T17:01:01.648Z,23.50
2018-09-14T17:03:33.271Z,23.50
2018-09-14T17:06:01.563Z,23.50
2018-09-14T17:08:29.766Z,23.40
2018-09-14T17:10:57.987Z,23.40
2018-09-14T17:13:26.547Z,23.40
2018-09-14T17:15:54.874Z,23.40
2018-09-14T17:18:23.294Z,23.40
2018-09-14T17:20:52.186Z,23.40
2018-09-14T17:23:20.510Z,23.40
2018-09-14T17:25:48.795Z,23.40
2018-09-14T17:28:17.543Z,23.40
2018-09-14T17:30:46.003Z,23.40
2018-09-14T17:33:14.248Z,23.40
2018-09-14T17:35:43.004Z,23.40
2018-09-14T17:38:11.279Z,23.40
2018-09-14T17:40:39.533Z,23.40
2018-09-14T17:43:08.132Z,23.40
2018-09-14T17:45:36.468Z,23.30
2018-09-14T17:48:04.722Z,23.30
2018-09-14T17:50:33.013Z,23.30
2018-09-14T17:53:01.295Z,23.30
2018-09-14T17:55:29.688Z,23.30
2018-09-14T17:57:58.258Z,23.30
2018-09-14T18:00:26.586Z,23.30
2018-09-14T18:02:54.825Z,23.30
2018-09-14T18:05:24.927Z,23.30
2018-09-14T18:07:53.260Z,23.30
2018-09-14T18:10:21.514Z,23.30
2018-09-14T18:12:50.113Z,23.30
2018-09-14T18:15:18.378Z,23.30
2018-09-14T18:17:47.896Z,23.40
2018-09-14T18:20:17.102Z,23.40
2018-09-14T18:22:45.346Z,23.30
2018-09-14T18:25:13.688Z,23.40
2018-09-14T18:27:42.541Z,23.30
2018-09-14T18:30:10.866Z,23.40
2018-09-14T18:32:39.487Z,23.40
2018-09-14T18:35:08.055Z,23.40
2018-09-14T18:37:36.639Z,23.40
2018-09-14T18:40:05.118Z,23.40
2018-09-14T18:42:33.938Z,23.40
2018-09-14T18:45:02.203Z,23.40
2018-09-14T18:47:30.979Z,23.40
2018-09-14T18:49:59.776Z,23.50
2018-09-14T18:52:28.097Z,23.50
2018-09-14T18:54:56.721Z,23.50
2018-09-14T18:57:25.701Z,23.50
2018-09-14T18:59:54.401Z,23.50
2018-09-14T19:02:23.224Z,23.50
2018-09-14T19:04:52.318Z,23.50
2018-09-14T19:07:20.846Z,23.60
2018-09-14T19:09:49.473Z,23.60
2018-09-14T19:12:18.395Z,23.60
2018-09-14T19:14:47.032Z,23.60
2018-09-14T19:17:15.347Z,23.60
2018-09-14T19:19:45.197Z,23.60
2018-09-14T19:22:13.810Z,23.60
2018-09-14T19:24:42.164Z,23.60
2018-09-14T19:27:11.182Z,23.60
2018-09-14T19:29:39.869Z,23.60
2018-09-14T19:32:08.452Z,23.60
2018-09-14T19:34:37.348Z,23.60
2018-09-14T19:37:06.131Z,23.60
2018-09-14T19:39:34.469Z,23.60
2018-09-14T19:42:03.505Z,23.60
2018-09-14T19:44:32.216Z,23.60
2018-09-14T19:47:00.831Z,23.60
2018-09-14T19:49:29.977Z,23.60
2018-09-14T19:51:58.636Z,23.60
2018-09-14T19:54:27.026Z,23.60
2018-09-14T19:56:55.772Z,23.60
2018-09-14T19:59:24.023Z,23.60
2018-09-14T20:01:52.370Z,23.60
2018-09-14T20:04:22.821Z,23.60
2018-09-14T20:06:51.416Z,23.60
2018-09-14T20:09:19.876Z,23.60
2018-09-14T20:11:48.338Z,23.60
2018-09-14T20:14:16.708Z,23.60
2018-09-14T20:16:44.980Z,23.60
2018-09-14T20:19:13.282Z,23.60
2018-09-14T20:21:41.623Z,23.60
2018-09-14T20:24:10.049Z,23.60
2018-09-14T20:26:39.506Z,23.60
2018-09-14T20:29:07.767Z,23.70
2018-09-14T20:31:35.986Z,23.60
2018-09-14T20:34:04.406Z,23.60
2018-09-14T20:36:32.662Z,23.60
2018-09-14T20:39:00.914Z,23.60
2018-09-14T20:41:29.728Z,23.70
2018-09-14T20:43:57.954Z,23.60
2018-09-14T20:46:26.199Z,23.70
2018-09-14T20:48:55.254Z,23.70
2018-09-14T20:51:23.540Z,23.60
2018-09-14T20:53:51.794Z,23.60
2018-09-14T20:56:20.465Z,23.60
2018-09-14T20:58:48.724Z,23.60
2018-09-14T21:01:17.050Z,23.60
2018-09-14T21:03:45.596Z,23.60
2018-09-14T21:06:14.396Z,23.60
2018-09-14T21:08:42.647Z,23.60
2018-09-14T21:11:11.355Z,23.60
2018-09-14T21:13:39.599Z,23.60
2018-09-14T21:16:07.834Z,23.60
2018-09-14T21:18:36.452Z,23.60
2018-09-14T21:21:04.929Z,23.60
2018-09-14T21:23:33.383Z,23.60
2018-09-14T21:26:01.737Z,23.60
2018-09-14T21:28:30.074Z,23.60
2018-09-14T21:30:58.327Z,23.60
2018-09-14T21:33:27.062Z,23.60
2018-09-14T21:35:55.310Z,23.60
2018-09-14T21:38:23.549Z,23.60
2018-09-14T21:40:52.194Z,23.60
2018-09-14T21:43:20.447Z,23.60
2018-09-14T21:45:48.736Z,23.60
2018-09-14T21:48:17.276Z,23.60
2018-09-14T21:50:45.500Z,23.60
2018-09-14T21:53:13.783Z,23.60
2018-09-14T21:55:42.854Z,23.60
2018-09-14T21:58:11.159Z,23.50
2018-09-14T22:00:44.851Z,23.50
2018-09-14T22:03:13.105Z,23.50
2018-09-14T22:05:41.339Z,23.50
2018-09-14T22:08:12.463Z,23.50
2018-09-14T22:10:40.776Z,23.50
2018-09-14T22:13:09.740Z,23.50
2018-09-14T22:15:38.620Z,23.50
2018-09-14T22:18:06.861Z,23.50
2018-09-14T22:20:35.113Z,23.50
2018-09-14T22:23:03.395Z,23.50
2018-09-14T22:25:31.636Z,23.50
2018-09-14T22:27:59.874Z,23.50
2018-09-14T22:30:29.101Z,23.50
2018-09-14T22:32:57.355Z,23.50
2018-09-14T22:35:26.492Z,23.50
2018-09-14T22:37:54.854Z,23.50
2018-09-14T22:40:23.094Z,23.40
2018-09-14T22:42:51.344Z,23.40
2018-09-14T22:45:19.705Z,23.40
2018-09-14T22:47:48.008Z,23.40
2018-09-14T22:50:16.321Z,23.40
2018-09-14T22:52:45.121Z,23.40
2018-09-14T22:55:13.502Z,23.40
2018-09-14T22:57:41.903Z,23.40
2018-09-14T23:00:10.675Z,23.40
2018-09-14T23:02:39.000Z,23.40
2018-09-14T23:05:08.978Z,23.40
2018-09-14T23:07:37.306Z,23.40
2018-09-14T23:10:05.876Z,23.40
2018-09-14T23:12:34.320Z,23.40
2018-09-14T23:15:02.570Z,23.40
2018-09-14T23:17:30.809Z,23.40
2018-09-14T23:19:59.341Z,23.40
2018-09-14T23:22:27.573Z,23.40
2018-09-14T23:24:55.788Z,23.40
2018-09-14T23:27:24.381Z,23.30
2018-09-14T23:29:52.645Z,23.30
2018-09-14T23:32:20.856Z,23.30
2018-09-14T23:34:49.406Z,23.30
2018-09-14T23:37:17.618Z,23.30
2018-09-14T23:39:45.859Z,23.30
2018-09-14T23:42:14.658Z,23.30
2018-09-14T23:44:43.104Z,23.30
2018-09-14T23:47:11.506Z,23.30
2018-09-14T23:49:40.161Z,23.30
2018-09-14T23:52:08.370Z,23.30
2018-09-14T23:54:36.599Z,23.30
2018-09-14T23:57:05.233Z,23.30
2018-09-14T23:59:33.472Z,23.30
